sensor_id;sensor_type;location;lat;lon;timestamp;pressure;altitude;pressure_sealevel;temperature;humidity
10167;BME280;62970;53.130;8.244;2024-01-16T00:00:40;100379.66;;;-0.71;81.26
10167;BME280;62970;53.130;8.244;2024-01-16T00:03:12;100383.06;;;-0.71;81.50
10167;BME280;62970;53.130;8.244;2024-01-16T00:05:41;100388.22;;;-0.69;81.61
10167;BME280;62970;53.130;8.244;2024-01-16T00:08:10;100393.38;;;-0.68;81.33
10167;BME280;62970;53.130;8.244;2024-01-16T00:10:40;100395.94;;;-0.68;81.00
10167;BME280;62970;53.130;8.244;2024-01-16T00:13:10;100389.06;;;-0.69;80.75
10167;BME280;62970;53.130;8.244;2024-01-16T00:15:39;100387.31;;;-0.73;80.41
10167;BME280;62970;53.130;8.244;2024-01-16T00:18:08;100389.84;;;-0.75;80.43
10167;BME280;62970;53.130;8.244;2024-01-16T00:20:40;100388.06;;;-0.79;80.35
10167;BME280;62970;53.130;8.244;2024-01-16T00:23:10;100382.06;;;-0.81;80.36
10167;BME280;62970;53.130;8.244;2024-01-16T00:25:39;100386.28;;;-0.84;80.51
10167;BME280;62970;53.130;8.244;2024-01-16T00:28:09;100381.97;;;-0.87;80.87
10167;BME280;62970;53.130;8.244;2024-01-16T00:30:38;100397.28;;;-0.88;80.62
10167;BME280;62970;53.130;8.244;2024-01-16T00:33:08;100393.84;;;-0.90;80.59
10167;BME280;62970;53.130;8.244;2024-01-16T00:35:41;100404.03;;;-0.93;80.62
10167;BME280;62970;53.130;8.244;2024-01-16T00:38:10;100398.84;;;-0.98;80.52
10167;BME280;62970;53.130;8.244;2024-01-16T00:40:40;100407.28;;;-1.02;79.90
10167;BME280;62970;53.130;8.244;2024-01-16T00:43:09;100414.00;;;-1.09;80.18
10167;BME280;62970;53.130;8.244;2024-01-16T00:45:38;100419.88;;;-1.14;80.25
10167;BME280;62970;53.130;8.244;2024-01-16T00:48:08;100428.34;;;-1.18;79.96
10167;BME280;62970;53.130;8.244;2024-01-16T00:50:42;100422.28;;;-1.23;80.34
10167;BME280;62970;53.130;8.244;2024-01-16T00:53:12;100431.59;;;-1.27;80.29
10167;BME280;62970;53.130;8.244;2024-01-16T00:55:41;100431.53;;;-1.30;80.08
10167;BME280;62970;53.130;8.244;2024-01-16T00:58:16;100426.31;;;-1.34;80.01
10167;BME280;62970;53.130;8.244;2024-01-16T01:00:46;100438.19;;;-1.38;80.24
10167;BME280;62970;53.130;8.244;2024-01-16T01:03:15;100433.81;;;-1.44;80.29
10167;BME280;62970;53.130;8.244;2024-01-16T01:05:47;100434.56;;;-1.49;79.75
10167;BME280;62970;53.130;8.244;2024-01-16T01:08:17;100442.13;;;-1.54;79.82
10167;BME280;62970;53.130;8.244;2024-01-16T01:10:46;100444.59;;;-1.58;79.69
10167;BME280;62970;53.130;8.244;2024-01-16T01:13:16;100441.97;;;-1.61;79.94
10167;BME280;62970;53.130;8.244;2024-01-16T01:15:45;100452.22;;;-1.61;80.42
10167;BME280;62970;53.130;8.244;2024-01-16T01:18:14;100446.28;;;-1.59;80.69
10167;BME280;62970;53.130;8.244;2024-01-16T01:20:43;100445.47;;;-1.58;81.03
10167;BME280;62970;53.130;8.244;2024-01-16T01:23:15;100449.72;;;-1.58;80.67
10167;BME280;62970;53.130;8.244;2024-01-16T01:25:44;100440.28;;;-1.61;80.39
10167;BME280;62970;53.130;8.244;2024-01-16T01:28:13;100448.75;;;-1.63;80.42
10167;BME280;62970;53.130;8.244;2024-01-16T01:30:42;100444.44;;;-1.66;80.04
10167;BME280;62970;53.130;8.244;2024-01-16T01:33:12;100452.03;;;-1.69;80.13
10167;BME280;62970;53.130;8.244;2024-01-16T01:35:41;100457.97;;;-1.72;80.10
10167;BME280;62970;53.130;8.244;2024-01-16T01:38:11;100457.91;;;-1.75;80.12
10167;BME280;62970;53.130;8.244;2024-01-16T01:40:43;100457.84;;;-1.78;79.98
10167;BME280;62970;53.130;8.244;2024-01-16T01:43:20;100458.66;;;-1.79;79.89
10167;BME280;62970;53.130;8.244;2024-01-16T01:46:12;100455.19;;;-1.82;79.84
10167;BME280;62970;53.130;8.244;2024-01-16T01:48:42;100450.00;;;-1.85;79.86
10167;BME280;62970;53.130;8.244;2024-01-16T01:51:14;100453.31;;;-1.89;79.84
10167;BME280;62970;53.130;8.244;2024-01-16T01:53:44;100461.78;;;-1.92;80.02
10167;BME280;62970;53.130;8.244;2024-01-16T01:56:19;100465.13;;;-1.94;79.69
10167;BME280;62970;53.130;8.244;2024-01-16T01:58:53;100463.38;;;-1.97;79.98
10167;BME280;62970;53.130;8.244;2024-01-16T02:01:24;100475.25;;;-1.99;79.75
10167;BME280;62970;53.130;8.244;2024-01-16T02:03:55;100479.47;;;-2.01;79.79
10167;BME280;62970;53.130;8.244;2024-01-16T02:06:25;100473.47;;;-2.03;79.92
10167;BME280;62970;53.130;8.244;2024-01-16T02:08:55;100481.06;;;-2.06;79.98
10167;BME280;62970;53.130;8.244;2024-01-16T02:11:27;100482.75;;;-2.07;79.65
10167;BME280;62970;53.130;8.244;2024-01-16T02:13:56;100494.66;;;-2.07;80.34
10167;BME280;62970;53.130;8.244;2024-01-16T02:16:25;100495.53;;;-2.07;80.24
10167;BME280;62970;53.130;8.244;2024-01-16T02:18:55;100493.00;;;-2.05;80.15
10167;BME280;62970;53.130;8.244;2024-01-16T02:21:22;100499.78;;;-2.07;80.08
10167;BME280;62970;53.130;8.244;2024-01-16T02:23:56;100496.31;;;-2.09;79.89
10167;BME280;62970;53.130;8.244;2024-01-16T02:26:26;100502.19;;;-2.13;79.69
10167;BME280;62970;53.130;8.244;2024-01-16T02:28:56;100504.66;;;-2.16;79.63
10167;BME280;62970;53.130;8.244;2024-01-16T02:31:25;100508.00;;;-2.19;79.21
10167;BME280;62970;53.130;8.244;2024-01-16T02:33:55;100523.28;;;-2.22;79.07
10167;BME280;62970;53.130;8.244;2024-01-16T02:36:24;100524.13;;;-2.21;79.61
10167;BME280;62970;53.130;8.244;2024-01-16T02:38:56;100516.47;;;-2.21;80.06
10167;BME280;62970;53.130;8.244;2024-01-16T02:41:25;100523.41;;;-2.16;80.55
10167;BME280;62970;53.130;8.244;2024-01-16T02:43:55;100523.50;;;-2.13;80.13
10167;BME280;62970;53.130;8.244;2024-01-16T02:46:24;100520.09;;;-2.12;79.92
10167;BME280;62970;53.130;8.244;2024-01-16T02:48:53;100526.88;;;-2.14;79.61
10167;BME280;62970;53.130;8.244;2024-01-16T02:51:22;100531.91;;;-2.17;79.66
10167;BME280;62970;53.130;8.244;2024-01-16T02:53:55;100536.06;;;-2.20;79.41
10167;BME280;62970;53.130;8.244;2024-01-16T02:56:24;100532.53;;;-2.25;79.23
10167;BME280;62970;53.130;8.244;2024-01-16T02:58:53;100533.31;;;-2.29;78.66
10167;BME280;62970;53.130;8.244;2024-01-16T03:01:24;100524.63;;;-2.36;78.48
10167;BME280;62970;53.130;8.244;2024-01-16T03:03:53;100533.06;;;-2.39;78.70
10167;BME280;62970;53.130;8.244;2024-01-16T03:06:23;100530.41;;;-2.43;78.61
10167;BME280;62970;53.130;8.244;2024-01-16T03:08:56;100527.72;;;-2.48;78.30
10167;BME280;62970;53.130;8.244;2024-01-16T03:11:26;100529.38;;;-2.50;78.64
10167;BME280;62970;53.130;8.244;2024-01-16T03:13:58;100530.13;;;-2.54;78.13
10167;BME280;62970;53.130;8.244;2024-01-16T03:16:27;100532.59;;;-2.57;78.14
10167;BME280;62970;53.130;8.244;2024-01-16T03:18:56;100533.34;;;-2.61;77.85
10167;BME280;62970;53.130;8.244;2024-01-16T03:21:28;100533.22;;;-2.65;78.29
10167;BME280;62970;53.130;8.244;2024-01-16T03:24:00;100529.75;;;-2.69;78.04
10167;BME280;62970;53.130;8.244;2024-01-16T03:26:30;100533.03;;;-2.73;77.73
10167;BME280;62970;53.130;8.244;2024-01-16T03:29:00;100534.69;;;-2.75;78.27
10167;BME280;62970;53.130;8.244;2024-01-16T03:31:29;100540.56;;;-2.78;77.71
10167;BME280;62970;53.130;8.244;2024-01-16T03:33:58;100530.31;;;-2.79;77.82
10167;BME280;62970;53.130;8.244;2024-01-16T03:36:28;100531.09;;;-2.82;78.03
10167;BME280;62970;53.130;8.244;2024-01-16T03:38:59;100533.59;;;-2.83;78.10
10167;BME280;62970;53.130;8.244;2024-01-16T03:41:29;100532.81;;;-2.81;78.21
10167;BME280;62970;53.130;8.244;2024-01-16T03:43:58;100530.34;;;-2.78;78.91
10167;BME280;62970;53.130;8.244;2024-01-16T03:46:27;100542.50;;;-2.69;79.22
10167;BME280;62970;53.130;8.244;2024-01-16T03:48:57;100539.31;;;-2.60;79.78
10167;BME280;62970;53.130;8.244;2024-01-16T03:51:26;100534.41;;;-2.53;79.81
10167;BME280;62970;53.130;8.244;2024-01-16T03:53:55;100538.78;;;-2.49;80.05
10167;BME280;62970;53.130;8.244;2024-01-16T03:56:27;100531.94;;;-2.50;79.28
10167;BME280;62970;53.130;8.244;2024-01-16T03:58:57;100523.38;;;-2.52;79.32
10167;BME280;62970;53.130;8.244;2024-01-16T04:01:33;100525.84;;;-2.55;78.64
10167;BME280;62970;53.130;8.244;2024-01-16T04:04:03;100535.09;;;-2.60;78.23
10167;BME280;62970;53.130;8.244;2024-01-16T04:06:33;100538.38;;;-2.64;78.26
10167;BME280;62970;53.130;8.244;2024-01-16T04:09:03;100528.03;;;-2.69;78.08
10167;BME280;62970;53.130;8.244;2024-01-16T04:11:35;100528.75;;;-2.74;77.56
10167;BME280;62970;53.130;8.244;2024-01-16T04:14:05;100527.81;;;-2.78;77.64
10167;BME280;62970;53.130;8.244;2024-01-16T04:16:34;100535.38;;;-2.81;77.87
10167;BME280;62970;53.130;8.244;2024-01-16T04:19:03;100530.19;;;-2.84;77.42
10167;BME280;62970;53.130;8.244;2024-01-16T04:21:32;100525.84;;;-2.88;77.69
10167;BME280;62970;53.130;8.244;2024-01-16T04:24:01;100519.00;;;-2.89;77.91
10167;BME280;62970;53.130;8.244;2024-01-16T04:26:31;100520.69;;;-2.89;77.85
10167;BME280;62970;53.130;8.244;2024-01-16T04:29:02;100518.97;;;-2.90;77.97
10167;BME280;62970;53.130;8.244;2024-01-16T04:31:35;100518.97;;;-2.90;77.97
10167;BME280;62970;53.130;8.244;2024-01-16T04:34:09;100518.91;;;-2.92;77.42
10167;BME280;62970;53.130;8.244;2024-01-16T04:36:38;100515.50;;;-2.92;78.06
10167;BME280;62970;53.130;8.244;2024-01-16T04:39:08;100506.94;;;-2.94;77.85
10167;BME280;62970;53.130;8.244;2024-01-16T04:41:39;100510.31;;;-2.95;77.68
10167;BME280;62970;53.130;8.244;2024-01-16T04:44:11;100519.63;;;-2.97;77.85
10167;BME280;62970;53.130;8.244;2024-01-16T04:46:40;100504.31;;;-2.97;77.86
10167;BME280;62970;53.130;8.244;2024-01-16T04:49:11;100502.53;;;-3.00;77.59
10167;BME280;62970;53.130;8.244;2024-01-16T04:51:40;100499.97;;;-3.00;77.71
10167;BME280;62970;53.130;8.244;2024-01-16T04:54:11;100500.84;;;-2.99;77.89
10167;BME280;62970;53.130;8.244;2024-01-16T04:56:40;100504.19;;;-3.01;77.47
10167;BME280;62970;53.130;8.244;2024-01-16T05:02:38;100511.09;;;-2.98;77.97
10167;BME280;62970;53.130;8.244;2024-01-16T05:05:08;100513.81;;;-2.92;78.91
10167;BME280;62970;53.130;8.244;2024-01-16T05:07:38;100517.38;;;-2.85;79.51
10167;BME280;62970;53.130;8.244;2024-01-16T05:10:10;100521.06;;;-2.76;79.76
10167;BME280;62970;53.130;8.244;2024-01-16T05:12:41;100516.97;;;-2.69;79.92
10167;BME280;62970;53.130;8.244;2024-01-16T05:15:10;100518.00;;;-2.62;80.27
10167;BME280;62970;53.130;8.244;2024-01-16T05:17:43;100518.97;;;-2.57;80.07
10167;BME280;62970;53.130;8.244;2024-01-16T05:20:12;100516.53;;;-2.53;79.93
10167;BME280;62970;53.130;8.244;2024-01-16T05:22:41;100517.44;;;-2.51;79.70
10167;BME280;62970;53.130;8.244;2024-01-16T05:25:11;100520.06;;;-2.48;79.88
10167;BME280;62970;53.130;8.244;2024-01-16T05:27:40;100516.78;;;-2.44;80.10
10167;BME280;62970;53.130;8.244;2024-01-16T05:30:12;100533.06;;;-2.39;80.61
10167;BME280;62970;53.130;8.244;2024-01-16T05:32:44;100545.13;;;-2.33;80.49
10167;BME280;62970;53.130;8.244;2024-01-16T05:35:14;100528.25;;;-2.26;80.89
10167;BME280;62970;53.130;8.244;2024-01-16T05:37:43;100528.41;;;-2.20;80.94
10167;BME280;62970;53.130;8.244;2024-01-16T05:40:12;100527.66;;;-2.16;81.09
10167;BME280;62970;53.130;8.244;2024-01-16T05:42:42;100520.91;;;-2.14;80.56
10167;BME280;62970;53.130;8.244;2024-01-16T05:45:11;100517.50;;;-2.13;80.59
10167;BME280;62970;53.130;8.244;2024-01-16T05:47:43;100520.00;;;-2.16;80.41
10167;BME280;62970;53.130;8.244;2024-01-16T05:50:12;100518.22;;;-2.19;80.08
10167;BME280;62970;53.130;8.244;2024-01-16T05:52:45;100526.75;;;-2.18;80.15
10167;BME280;62970;53.130;8.244;2024-01-16T05:55:14;100514.88;;;-2.16;80.33
10167;BME280;62970;53.130;8.244;2024-01-16T05:57:44;100532.06;;;-2.11;81.04
10167;BME280;62970;53.130;8.244;2024-01-16T06:00:18;100549.16;;;-2.08;81.03
10167;BME280;62970;53.130;8.244;2024-01-16T06:02:51;100539.03;;;-2.04;81.23
10167;BME280;62970;53.130;8.244;2024-01-16T06:05:21;100536.63;;;-1.97;81.25
10167;BME280;62970;53.130;8.244;2024-01-16T06:07:50;100533.31;;;-1.93;81.15
10167;BME280;62970;53.130;8.244;2024-01-16T06:10:20;100541.06;;;-1.90;81.05
10167;BME280;62970;53.130;8.244;2024-01-16T06:12:49;100533.38;;;-1.90;80.82
10167;BME280;62970;53.130;8.244;2024-01-16T06:15:19;100529.06;;;-1.93;80.66
10167;BME280;62970;53.130;8.244;2024-01-16T06:17:53;100529.00;;;-1.96;80.55
10167;BME280;62970;53.130;8.244;2024-01-16T06:20:22;100523.81;;;-1.99;80.40
10167;BME280;62970;53.130;8.244;2024-01-16T06:22:51;100517.72;;;-2.04;80.01
10167;BME280;62970;53.130;8.244;2024-01-16T06:25:20;100521.00;;;-2.10;79.58
10167;BME280;62970;53.130;8.244;2024-01-16T06:27:50;100516.66;;;-2.14;79.49
10167;BME280;62970;53.130;8.244;2024-01-16T06:30:19;100518.22;;;-2.19;79.56
10167;BME280;62970;53.130;8.244;2024-01-16T06:32:53;100513.06;;;-2.22;79.56
10167;BME280;62970;53.130;8.244;2024-01-16T06:35:22;100524.06;;;-2.24;79.59
10167;BME280;62970;53.130;8.244;2024-01-16T06:37:52;100523.97;;;-2.27;79.49
10167;BME280;62970;53.130;8.244;2024-01-16T06:40:22;100517.97;;;-2.29;79.36
10167;BME280;62970;53.130;8.244;2024-01-16T06:42:51;100514.50;;;-2.31;79.46
10167;BME280;62970;53.130;8.244;2024-01-16T06:45:20;100515.34;;;-2.32;79.59
10167;BME280;62970;53.130;8.244;2024-01-16T06:47:54;100515.25;;;-2.36;79.50
10167;BME280;62970;53.130;8.244;2024-01-16T06:50:24;100513.53;;;-2.37;79.36
10167;BME280;62970;53.130;8.244;2024-01-16T06:52:53;100516.91;;;-2.38;79.25
10167;BME280;62970;53.130;8.244;2024-01-16T06:55:22;100510.94;;;-2.38;79.68
10167;BME280;62970;53.130;8.244;2024-01-16T06:57:51;100522.00;;;-2.39;79.41
10167;BME280;62970;53.130;8.244;2024-01-16T07:00:21;100535.66;;;-2.37;79.86
10167;BME280;62970;53.130;8.244;2024-01-16T07:02:56;100533.16;;;-2.36;80.07
10167;BME280;62970;53.130;8.244;2024-01-16T07:05:26;100533.22;;;-2.32;80.00
10167;BME280;62970;53.130;8.244;2024-01-16T07:07:55;100536.72;;;-2.29;80.49
10167;BME280;62970;53.130;8.244;2024-01-16T07:10:27;100543.63;;;-2.25;80.47
10167;BME280;62970;53.130;8.244;2024-01-16T07:12:57;100542.09;;;-2.18;81.07
10167;BME280;62970;53.130;8.244;2024-01-16T07:15:27;100546.47;;;-2.13;81.26
10167;BME280;62970;53.130;8.244;2024-01-16T07:17:59;100550.91;;;-2.06;81.19
10167;BME280;62970;53.130;8.244;2024-01-16T07:20:30;100550.19;;;-2.00;81.43
10167;BME280;62970;53.130;8.244;2024-01-16T07:23:01;100550.31;;;-1.95;81.22
10167;BME280;62970;53.130;8.244;2024-01-16T07:25:30;100553.78;;;-1.92;80.96
10167;BME280;62970;53.130;8.244;2024-01-16T07:28:00;100554.66;;;-1.91;81.25
10167;BME280;62970;53.130;8.244;2024-01-16T07:30:29;100546.97;;;-1.93;80.73
10167;BME280;62970;53.130;8.244;2024-01-16T07:33:01;100551.22;;;-1.93;80.73
10167;BME280;62970;53.130;8.244;2024-01-16T07:35:30;100548.63;;;-1.95;80.86
10167;BME280;62970;53.130;8.244;2024-01-16T07:37:59;100552.00;;;-1.96;80.84
10167;BME280;62970;53.130;8.244;2024-01-16T07:40:28;100548.50;;;-1.99;80.72
10167;BME280;62970;53.130;8.244;2024-01-16T07:42:58;100557.00;;;-2.00;80.77
10167;BME280;62970;53.130;8.244;2024-01-16T07:45:27;100559.56;;;-2.00;80.46
10167;BME280;62970;53.130;8.244;2024-01-16T07:48:00;100557.81;;;-2.01;80.59
10167;BME280;62970;53.130;8.244;2024-01-16T07:50:29;100561.25;;;-2.01;80.76
10167;BME280;62970;53.130;8.244;2024-01-16T07:52:59;100550.16;;;-2.01;80.71
10167;BME280;62970;53.130;8.244;2024-01-16T07:55:28;100559.56;;;-2.00;80.67
10167;BME280;62970;53.130;8.244;2024-01-16T07:57:57;100562.13;;;-2.00;80.59
10167;BME280;62970;53.130;8.244;2024-01-16T08:00:33;100569.75;;;-2.02;80.72
10167;BME280;62970;53.130;8.244;2024-01-16T08:03:08;100568.06;;;-2.01;80.70
10167;BME280;62970;53.130;8.244;2024-01-16T08:05:38;100564.66;;;-2.00;80.48
10167;BME280;62970;53.130;8.244;2024-01-16T08:08:09;100553.66;;;-1.98;80.65
10167;BME280;62970;53.130;8.244;2024-01-16T08:10:41;100573.31;;;-1.95;80.83
10167;BME280;62970;53.130;8.244;2024-01-16T08:13:10;100570.81;;;-1.92;81.19
10167;BME280;62970;53.130;8.244;2024-01-16T08:15:39;100571.69;;;-1.92;80.80
10167;BME280;62970;53.130;8.244;2024-01-16T08:18:11;100568.31;;;-1.91;81.23
10167;BME280;62970;53.130;8.244;2024-01-16T08:20:43;100567.59;;;-1.85;81.31
10167;BME280;62970;53.130;8.244;2024-01-16T08:23:13;100566.88;;;-1.80;81.24
10167;BME280;62970;53.130;8.244;2024-01-16T08:25:42;100565.28;;;-1.75;81.91
10167;BME280;62970;53.130;8.244;2024-01-16T08:28:12;100573.09;;;-1.68;81.75
10167;BME280;62970;53.130;8.244;2024-01-16T08:30:41;100568.09;;;-1.64;81.73
10167;BME280;62970;53.130;8.244;2024-01-16T08:33:13;100582.63;;;-1.61;81.40
10167;BME280;62970;53.130;8.244;2024-01-16T08:35:43;100575.84;;;-1.59;81.44
10167;BME280;62970;53.130;8.244;2024-01-16T08:38:12;100577.59;;;-1.58;81.23
10167;BME280;62970;53.130;8.244;2024-01-16T08:40:42;100574.19;;;-1.57;81.67
10167;BME280;62970;53.130;8.244;2024-01-16T08:43:11;100575.97;;;-1.55;81.34
10167;BME280;62970;53.130;8.244;2024-01-16T08:45:41;100575.16;;;-1.52;81.39
10167;BME280;62970;53.130;8.244;2024-01-16T08:48:13;100583.69;;;-1.52;81.26
10167;BME280;62970;53.130;8.244;2024-01-16T08:50:44;100584.59;;;-1.50;81.59
10167;BME280;62970;53.130;8.244;2024-01-16T08:53:15;100590.66;;;-1.46;81.38
10167;BME280;62970;53.130;8.244;2024-01-16T08:55:44;100587.25;;;-1.45;81.38
10167;BME280;62970;53.130;8.244;2024-01-16T08:58:13;100589.84;;;-1.44;81.33
10167;BME280;62970;53.130;8.244;2024-01-16T09:00:43;100591.56;;;-1.43;81.29
10167;BME280;62970;53.130;8.244;2024-01-16T09:03:16;100595.00;;;-1.42;81.44
10167;BME280;62970;53.130;8.244;2024-01-16T09:05:45;100589.09;;;-1.40;81.67
10167;BME280;62970;53.130;8.244;2024-01-16T09:08:14;100595.94;;;-1.39;81.37
10167;BME280;62970;53.130;8.244;2024-01-16T09:10:44;100604.50;;;-1.36;81.65
10167;BME280;62970;53.130;8.244;2024-01-16T09:13:16;100603.69;;;-1.35;81.10
10167;BME280;62970;53.130;8.244;2024-01-16T09:15:46;100602.88;;;-1.33;81.49
10167;BME280;62970;53.130;8.244;2024-01-16T09:18:18;100608.03;;;-1.31;81.52
10167;BME280;62970;53.130;8.244;2024-01-16T09:20:48;100602.06;;;-1.30;81.28
10167;BME280;62970;53.130;8.244;2024-01-16T09:23:18;100601.25;;;-1.29;81.50
10167;BME280;62970;53.130;8.244;2024-01-16T09:25:47;100597.91;;;-1.27;81.33
10167;BME280;62970;53.130;8.244;2024-01-16T09:28:16;100610.75;;;-1.24;81.56
10167;BME280;62970;53.130;8.244;2024-01-16T09:30:45;100599.69;;;-1.23;81.74
10167;BME280;62970;53.130;8.244;2024-01-16T09:33:17;100602.31;;;-1.20;81.29
10167;BME280;62970;53.130;8.244;2024-01-16T09:35:46;100604.94;;;-1.17;81.31
10167;BME280;62970;53.130;8.244;2024-01-16T09:38:16;100604.13;;;-1.14;81.25
10167;BME280;62970;53.130;8.244;2024-01-16T09:40:45;100606.75;;;-1.11;81.33
10167;BME280;62970;53.130;8.244;2024-01-16T09:43:17;100615.38;;;-1.08;81.81
10167;BME280;62970;53.130;8.244;2024-01-16T09:45:48;100614.59;;;-1.03;81.65
10167;BME280;62970;53.130;8.244;2024-01-16T09:48:20;100613.88;;;-0.98;81.99
10167;BME280;62970;53.130;8.244;2024-01-16T09:50:50;100615.72;;;-0.91;81.93
10167;BME280;62970;53.130;8.244;2024-01-16T09:53:20;100612.50;;;-0.81;82.30
10167;BME280;62970;53.130;8.244;2024-01-16T09:55:51;100611.81;;;-0.72;82.36
10167;BME280;62970;53.130;8.244;2024-01-16T09:58:24;100606.88;;;-0.63;82.88
10167;BME280;62970;53.130;8.244;2024-01-16T10:01:02;100613.06;;;-0.52;83.05
10167;BME280;62970;53.130;8.244;2024-01-16T10:03:41;100604.78;;;-0.40;82.61
10167;BME280;62970;53.130;8.244;2024-01-16T10:06:15;100613.53;;;-0.29;83.40
10167;BME280;62970;53.130;8.244;2024-01-16T10:08:53;100620.53;;;-0.19;82.80
10167;BME280;62970;53.130;8.244;2024-01-16T10:11:26;100609.56;;;-0.12;82.69
10167;BME280;62970;53.130;8.244;2024-01-16T10:13:59;100613.97;;;-0.04;82.89
10167;BME280;62970;53.130;8.244;2024-01-16T10:16:59;100614.94;;;0.02;82.33
10167;BME280;62970;53.130;8.244;2024-01-16T10:19:37;100609.06;;;0.09;82.90
10167;BME280;62970;53.130;8.244;2024-01-16T10:22:22;100607.41;;;0.13;83.17
10167;BME280;62970;53.130;8.244;2024-01-16T10:25:12;100601.50;;;0.18;82.87
10167;BME280;62970;53.130;8.244;2024-01-16T10:28:07;100600.78;;;0.26;82.98
10167;BME280;62970;53.130;8.244;2024-01-16T10:30:40;100600.88;;;0.33;83.35
10167;BME280;62970;53.130;8.244;2024-01-16T10:33:19;100602.66;;;0.37;83.71
10167;BME280;62970;53.130;8.244;2024-01-16T10:35:57;100601.91;;;0.43;83.81
10167;BME280;62970;53.130;8.244;2024-01-16T10:38:36;100606.28;;;0.50;84.05
10167;BME280;62970;53.130;8.244;2024-01-16T10:41:11;100602.06;;;0.55;84.39
10167;BME280;62970;53.130;8.244;2024-01-16T10:43:44;100605.56;;;0.60;83.78
10167;BME280;62970;53.130;8.244;2024-01-16T10:46:16;100607.34;;;0.64;84.20
10167;BME280;62970;53.130;8.244;2024-01-16T10:48:59;100607.44;;;0.72;84.03
10167;BME280;62970;53.130;8.244;2024-01-16T10:51:32;100611.72;;;0.73;84.09
10167;BME280;62970;53.130;8.244;2024-01-16T10:54:06;100615.16;;;0.73;84.01
10167;BME280;62970;53.130;8.244;2024-01-16T10:56:39;100616.00;;;0.72;83.83
10167;BME280;62970;53.130;8.244;2024-01-16T11:02:10;100610.69;;;0.60;83.52
10167;BME280;62970;53.130;8.244;2024-01-16T11:04:45;100607.25;;;0.58;83.54
10167;BME280;62970;53.130;8.244;2024-01-16T11:07:17;100604.69;;;0.58;83.71
10167;BME280;62970;53.130;8.244;2024-01-16T11:09:49;100601.31;;;0.62;84.26
10167;BME280;62970;53.130;8.244;2024-01-16T11:12:19;100597.94;;;0.65;84.23
10167;BME280;62970;53.130;8.244;2024-01-16T11:14:53;100596.22;;;0.65;84.32
10167;BME280;62970;53.130;8.244;2024-01-16T11:17:24;100597.16;;;0.70;83.90
10167;BME280;62970;53.130;8.244;2024-01-16T11:19:56;100600.59;;;0.71;83.95
10167;BME280;62970;53.130;8.244;2024-01-16T11:22:34;100599.75;;;0.72;83.99
10167;BME280;62970;53.130;8.244;2024-01-16T11:25:11;100600.63;;;0.74;84.46
10167;BME280;62970;53.130;8.244;2024-01-16T11:27:42;100602.38;;;0.76;84.39
10167;BME280;62970;53.130;8.244;2024-01-16T11:30:31;100593.84;;;0.79;84.62
10167;BME280;62970;53.130;8.244;2024-01-16T11:33:00;100593.88;;;0.82;84.22
10167;BME280;62970;53.130;8.244;2024-01-16T11:35:36;100599.00;;;0.80;84.49
10167;BME280;62970;53.130;8.244;2024-01-16T11:38:18;100598.13;;;0.78;84.47
10167;BME280;62970;53.130;8.244;2024-01-16T11:40:48;100598.13;;;0.80;84.27
10167;BME280;62970;53.130;8.244;2024-01-16T11:43:36;100600.72;;;0.81;84.15
10167;BME280;62970;53.130;8.244;2024-01-16T11:46:07;100597.34;;;0.84;84.25
10167;BME280;62970;53.130;8.244;2024-01-16T11:48:36;100601.66;;;0.86;84.43
10167;BME280;62970;53.130;8.244;2024-01-16T11:51:24;100599.94;;;0.87;84.58
10167;BME280;62970;53.130;8.244;2024-01-16T11:53:57;100600.78;;;0.86;84.17
10167;BME280;62970;53.130;8.244;2024-01-16T11:59:59;100596.50;;;0.85;84.40
10167;BME280;62970;53.130;8.244;2024-01-16T12:02:55;100593.06;;;0.84;84.15
10167;BME280;62970;53.130;8.244;2024-01-16T12:05:24;100595.69;;;0.87;84.28
10167;BME280;62970;53.130;8.244;2024-01-16T12:07:54;100589.66;;;0.85;84.53
10167;BME280;62970;53.130;8.244;2024-01-16T12:10:26;100593.94;;;0.86;84.44
10167;BME280;62970;53.130;8.244;2024-01-16T12:12:58;100587.97;;;0.87;84.63
10167;BME280;62970;53.130;8.244;2024-01-16T12:15:28;100585.44;;;0.89;84.60
10167;BME280;62970;53.130;8.244;2024-01-16T12:17:59;100584.59;;;0.90;84.57
10167;BME280;62970;53.130;8.244;2024-01-16T12:20:32;100589.75;;;0.92;84.63
10167;BME280;62970;53.130;8.244;2024-01-16T12:23:03;100583.78;;;0.96;84.54
10167;BME280;62970;53.130;8.244;2024-01-16T12:28:21;100580.44;;;1.01;84.77
10167;BME280;62970;53.130;8.244;2024-01-16T12:30:54;100577.91;;;1.04;84.46
10167;BME280;62970;53.130;8.244;2024-01-16T12:33:23;100571.06;;;1.03;84.50
10167;BME280;62970;53.130;8.244;2024-01-16T12:38:53;100567.63;;;1.03;84.41
10167;BME280;62970;53.130;8.244;2024-01-16T12:41:27;100559.03;;;1.01;84.08
10167;BME280;62970;53.130;8.244;2024-01-16T12:43:57;100560.75;;;1.00;84.33
10167;BME280;62970;53.130;8.244;2024-01-16T12:46:27;100563.31;;;1.00;84.08
10167;BME280;62970;53.130;8.244;2024-01-16T12:49:01;100557.34;;;1.01;84.45
10167;BME280;62970;53.130;8.244;2024-01-16T12:51:32;100558.19;;;1.02;84.47
10167;BME280;62970;53.130;8.244;2024-01-16T12:54:13;100557.38;;;1.04;84.13
10167;BME280;62970;53.130;8.244;2024-01-16T12:56:45;100554.81;;;1.06;84.10
10167;BME280;62970;53.130;8.244;2024-01-16T12:59:15;100558.25;;;1.08;84.13
10167;BME280;62970;53.130;8.244;2024-01-16T13:01:45;100557.41;;;1.07;84.35
10167;BME280;62970;53.130;8.244;2024-01-16T13:04:17;100549.72;;;1.09;84.13
10167;BME280;62970;53.130;8.244;2024-01-16T13:06:47;100552.31;;;1.10;84.01
10167;BME280;62970;53.130;8.244;2024-01-16T13:09:16;100548.00;;;1.09;83.79
10167;BME280;62970;53.130;8.244;2024-01-16T13:11:54;100544.56;;;1.07;84.00
10167;BME280;62970;53.130;8.244;2024-01-16T13:14:24;100544.53;;;1.06;83.92
10167;BME280;62970;53.130;8.244;2024-01-16T13:16:54;100550.53;;;1.05;83.65
10167;BME280;62970;53.130;8.244;2024-01-16T13:19:25;100537.66;;;1.03;83.69
10167;BME280;62970;53.130;8.244;2024-01-16T13:21:56;100544.50;;;1.01;83.68
10167;BME280;62970;53.130;8.244;2024-01-16T13:24:25;100541.03;;;0.98;83.38
10167;BME280;62970;53.130;8.244;2024-01-16T13:26:57;100540.16;;;0.97;83.31
10167;BME280;62970;53.130;8.244;2024-01-16T13:29:27;100543.56;;;0.95;83.42